createdAt,value
2022-08-28T00:00:52.507Z,96.61
2022-08-28T00:03:39.445Z,96.36
2022-08-28T00:06:19.436Z,96.84
2022-08-28T00:09:14.454Z,96.92
2022-08-28T00:12:01.446Z,96.69
2022-08-28T00:14:41.440Z,96.67
2022-08-28T00:17:35.445Z,97.11
2022-08-28T00:20:27.454Z,96.99
2022-08-28T00:23:00.557Z,97.35
2022-08-28T00:25:47.458Z,97.65
2022-08-28T00:28:24.304Z,97.72
2022-08-28T00:31:19.517Z,97.67
2022-08-28T00:34:09.460Z,98.20
2022-08-28T00:36:44.560Z,97.83
2022-08-28T00:39:31.453Z,98.26
2022-08-28T00:42:11.475Z,98.43
2022-08-28T00:44:58.464Z,98.87
2022-08-28T00:47:38.472Z,99.11
2022-08-28T00:50:36.467Z,98.89
2022-08-28T00:53:25.346Z,99.03
2022-08-28T00:56:13.141Z,98.74
2022-08-28T00:59:04.466Z,98.82
2022-08-28T01:01:45.574Z,99.08
2022-08-28T01:04:44.464Z,99.34
2022-08-28T01:07:38.499Z,99.40
2022-08-28T01:10:28.476Z,99.09
2022-08-28T01:13:02.550Z,98.78
2022-08-28T01:15:49.525Z,98.77
2022-08-28T01:18:30.473Z,99.51
2022-08-28T01:21:43.495Z,99.14
2022-08-28T01:24:31.475Z,99.35
2022-08-28T01:27:04.563Z,98.97
2022-08-28T01:29:51.471Z,99.78
2022-08-28T01:32:44.586Z,99.26
2022-08-28T01:35:35.492Z,99.52
2022-08-28T01:38:08.628Z,99.78
2022-08-28T01:40:59.501Z,100.00
2022-08-28T01:43:33.580Z,99.83
2022-08-28T01:46:20.591Z,99.78
2022-08-28T01:48:57.005Z,99.98
2022-08-28T01:51:43.498Z,100.00
2022-08-28T01:54:17.595Z,100.00
2022-08-28T01:57:04.499Z,99.94
2022-08-28T01:59:37.649Z,100.00
2022-08-28T02:02:24.502Z,100.00
2022-08-28T02:05:04.511Z,100.00
2022-08-28T02:07:51.520Z,100.00
2022-08-28T02:10:33.514Z,100.00
2022-08-28T02:13:27.531Z,100.00
2022-08-28T02:16:16.560Z,100.00
2022-08-28T02:18:57.533Z,100.00
2022-08-28T02:21:44.523Z,100.00
2022-08-28T02:24:24.505Z,100.00
2022-08-28T02:27:11.533Z,100.00
2022-08-28T02:29:44.681Z,100.00
2022-08-28T02:32:39.525Z,100.00
2022-08-28T02:35:27.532Z,100.00
2022-08-28T02:38:01.569Z,100.00
2022-08-28T02:40:48.517Z,100.00
2022-08-28T02:43:21.604Z,100.00
2022-08-28T02:46:09.587Z,100.00
2022-08-28T02:48:45.700Z,100.00
2022-08-28T02:51:32.559Z,100.00
2022-08-28T02:54:06.615Z,100.00
2022-08-28T02:56:53.535Z,100.00
2022-08-28T02:59:27.676Z,100.00
2022-08-28T03:02:14.611Z,100.00
2022-08-28T03:04:48.472Z,100.00
2022-08-28T03:07:35.617Z,100.00
2022-08-28T03:10:08.742Z,100.00
2022-08-28T03:12:55.590Z,100.00
2022-08-28T03:15:35.606Z,100.00
2022-08-28T03:18:29.601Z,100.00
2022-08-28T03:21:24.566Z,100.00
2022-08-28T03:24:11.581Z,100.00
2022-08-28T03:26:48.630Z,100.00
2022-08-28T03:29:35.575Z,100.00
2022-08-28T03:32:08.699Z,100.00
2022-08-28T03:34:56.566Z,100.00
2022-08-28T03:37:36.608Z,100.00
2022-08-28T03:40:23.668Z,100.00
2022-08-28T03:43:03.583Z,100.00
2022-08-28T03:46:19.091Z,100.00
2022-08-28T03:49:14.611Z,100.00
2022-08-28T03:52:01.597Z,100.00
2022-08-28T03:54:34.699Z,100.00
2022-08-28T03:57:29.634Z,100.00
2022-08-28T04:00:09.583Z,100.00
2022-08-28T04:03:03.655Z,100.00
2022-08-28T04:05:52.610Z,100.00
2022-08-28T04:08:27.343Z,100.00
2022-08-28T04:11:14.614Z,100.00
2022-08-28T04:13:54.617Z,100.00
2022-08-28T04:16:49.699Z,100.00
2022-08-28T04:19:36.623Z,100.00
2022-08-28T04:22:18.293Z,100.00
2022-08-28T04:25:12.617Z,100.00
2022-08-28T04:28:02.655Z,100.00
2022-08-28T04:30:42.609Z,100.00
2022-08-28T04:33:37.618Z,100.00
2022-08-28T04:36:24.608Z,100.00
2022-08-28T04:39:04.603Z,100.00
2022-08-28T04:41:58.612Z,100.00
2022-08-28T04:44:46.668Z,100.00
2022-08-28T04:47:26.614Z,100.00
2022-08-28T04:50:22.614Z,100.00
2022-08-28T04:53:18.610Z,100.00
2022-08-28T04:56:05.646Z,100.00
2022-08-28T04:58:40.708Z,100.00
2022-08-28T05:01:30.672Z,100.00
2022-08-28T05:04:18.615Z,100.00
2022-08-28T05:07:14.618Z,100.00
2022-08-28T05:10:08.632Z,100.00
2022-08-28T05:13:04.614Z,100.00
2022-08-28T05:15:55.702Z,100.00
2022-08-28T05:18:29.700Z,100.00
2022-08-28T05:21:22.621Z,100.00
2022-08-28T05:23:59.776Z,100.00
2022-08-28T05:26:48.766Z,100.00
2022-08-28T05:29:29.668Z,100.00
2022-08-28T05:32:23.633Z,100.00
2022-08-28T05:35:10.636Z,100.00
2022-08-28T05:37:50.625Z,100.00
2022-08-28T05:40:44.647Z,100.00
2022-08-28T05:43:32.639Z,100.00
2022-08-28T05:46:11.840Z,100.00
2022-08-28T05:48:58.634Z,100.00
2022-08-28T05:51:40.629Z,100.00
2022-08-28T05:54:29.154Z,100.00
2022-08-28T05:57:09.642Z,100.00
2022-08-28T06:00:03.651Z,100.00
2022-08-28T06:02:51.644Z,100.00
2022-08-28T06:05:25.754Z,100.00
2022-08-28T06:08:12.667Z,99.53
2022-08-28T06:10:50.936Z,98.97
2022-08-28T06:13:40.814Z,100.00
2022-08-28T06:16:22.748Z,98.42
2022-08-28T06:19:09.640Z,98.31
2022-08-28T06:21:51.684Z,98.54
2022-08-28T06:24:46.649Z,97.72
2022-08-28T06:27:43.660Z,97.33
2022-08-28T06:30:40.060Z,96.24
2022-08-28T06:33:35.668Z,95.94
2022-08-28T06:36:24.720Z,96.14
2022-08-28T06:38:58.482Z,94.68
2022-08-28T06:41:49.664Z,95.57
2022-08-28T06:44:34.712Z,92.85
2022-08-28T06:47:28.708Z,92.40
2022-08-28T06:50:15.655Z,91.57
2022-08-28T06:52:48.753Z,91.70
2022-08-28T06:55:35.687Z,91.94
2022-08-28T06:58:08.760Z,92.09
2022-08-28T07:01:02.856Z,92.10
2022-08-28T07:03:44.380Z,91.73
2022-08-28T07:06:36.997Z,90.71
2022-08-28T07:09:12.757Z,90.20
2022-08-28T07:11:59.683Z,89.50
2022-08-28T07:14:32.763Z,90.02
2022-08-28T07:17:19.672Z,88.47
2022-08-28T07:19:52.777Z,88.96
2022-08-28T07:22:39.696Z,87.96
2022-08-28T07:25:21.709Z,87.71
2022-08-28T07:28:08.749Z,87.33
2022-08-28T07:30:41.805Z,86.45
2022-08-28T07:33:28.706Z,85.15
2022-08-28T07:36:03.477Z,85.29
2022-08-28T07:38:50.707Z,84.33
2022-08-28T07:41:34.700Z,82.44
2022-08-28T07:44:47.716Z,77.91
2022-08-28T07:47:45.703Z,78.51
2022-08-28T07:50:32.704Z,78.09
2022-08-28T07:53:06.287Z,78.72
2022-08-28T07:55:52.705Z,77.77
2022-08-28T07:58:33.719Z,79.93
2022-08-28T08:01:27.766Z,79.45
2022-08-28T08:04:26.728Z,79.17
2022-08-28T08:07:14.720Z,79.91
2022-08-28T08:09:49.826Z,80.32
2022-08-28T08:12:36.737Z,79.27
2022-08-28T08:15:11.838Z,78.31
2022-08-28T08:17:58.736Z,79.22
2022-08-28T08:20:31.812Z,79.40
2022-08-28T08:23:18.730Z,78.23
2022-08-28T08:26:06.284Z,77.58
2022-08-28T08:28:53.743Z,77.88
2022-08-28T08:31:29.925Z,78.34
2022-08-28T08:34:16.738Z,79.54
2022-08-28T08:36:56.740Z,80.31
2022-08-28T08:39:50.735Z,80.59
2022-08-28T08:42:40.734Z,79.49
2022-08-28T08:45:27.751Z,79.88
2022-08-28T08:48:20.739Z,78.43
2022-08-28T08:50:55.426Z,79.88
2022-08-28T08:53:52.735Z,80.50
2022-08-28T08:56:34.896Z,79.52
2022-08-28T08:59:28.746Z,80.71
2022-08-28T09:02:12.197Z,81.35
2022-08-28T09:05:11.755Z,81.36
2022-08-28T09:08:08.818Z,81.55
2022-08-28T09:11:13.774Z,82.34
2022-08-28T09:14:09.755Z,82.82
2022-08-28T09:16:46.859Z,84.05
2022-08-28T09:19:33.759Z,84.15
2022-08-28T09:22:13.779Z,85.84
2022-08-28T09:25:07.762Z,86.66
2022-08-28T09:27:59.760Z,87.75
2022-08-28T09:30:44.818Z,88.69
2022-08-28T09:33:45.747Z,89.71
2022-08-28T09:36:48.768Z,90.12
2022-08-28T09:39:40.766Z,91.99
2022-08-28T09:42:53.813Z,92.74
2022-08-28T09:45:47.778Z,93.63
2022-08-28T09:48:46.775Z,93.79
2022-08-28T09:51:38.680Z,95.01
2022-08-28T09:54:42.789Z,94.46
2022-08-28T09:57:15.866Z,94.87
2022-08-28T10:00:03.778Z,94.51
2022-08-28T10:03:07.003Z,95.29
2022-08-28T10:06:10.783Z,96.24
2022-08-28T10:09:15.790Z,96.12
2022-08-28T10:12:18.786Z,95.57
2022-08-28T10:15:14.875Z,96.41
2022-08-28T10:18:37.804Z,96.45
2022-08-28T10:21:58.813Z,95.94
2022-08-28T10:25:10.781Z,96.10
2022-08-28T10:28:09.953Z,95.76
2022-08-28T10:30:56.929Z,95.26
2022-08-28T10:33:56.829Z,95.38
2022-08-28T10:36:36.991Z,96.89
2022-08-28T10:39:48.801Z,97.72
2022-08-28T10:42:36.901Z,97.10
2022-08-28T10:45:29.808Z,97.22
2022-08-28T10:48:28.820Z,96.80
2022-08-28T10:51:57.795Z,97.49
2022-08-28T10:54:59.830Z,98.76
2022-08-28T10:57:55.808Z,99.40
2022-08-28T11:00:50.847Z,99.57
2022-08-28T11:03:58.825Z,98.48
2022-08-28T11:06:58.832Z,98.51
2022-08-28T11:09:52.823Z,97.82
2022-08-28T11:12:32.810Z,97.51
2022-08-28T11:16:00.825Z,97.32
2022-08-28T11:19:13.857Z,97.97
2022-08-28T11:21:57.072Z,98.28
2022-08-28T11:25:04.272Z,98.22
2022-08-28T11:27:42.901Z,97.15
2022-08-28T11:30:47.905Z,97.09
2022-08-28T11:34:02.858Z,97.08
2022-08-28T11:36:49.860Z,97.23
2022-08-28T11:39:29.850Z,97.01
2022-08-28T11:42:23.847Z,96.91
2022-08-28T11:45:11.852Z,97.32
2022-08-28T11:47:52.282Z,96.66
2022-08-28T11:50:57.843Z,96.55
2022-08-28T11:54:13.858Z,95.65
2022-08-28T11:57:22.987Z,96.26
2022-08-28T12:00:24.872Z,95.07
2022-08-28T12:03:16.865Z,95.45
2022-08-28T12:06:01.960Z,94.63
2022-08-28T12:08:51.849Z,94.58
2022-08-28T12:11:53.873Z,94.24
2022-08-28T12:15:13.867Z,94.88
2022-08-28T12:18:12.883Z,94.87
2022-08-28T12:20:57.933Z,93.77
2022-08-28T12:23:50.848Z,93.62
2022-08-28T12:26:32.145Z,92.07
2022-08-28T12:29:44.861Z,89.73
2022-08-28T12:32:46.878Z,88.69
2022-08-28T12:35:34.874Z,89.35
2022-08-28T12:38:11.961Z,88.48
2022-08-28T12:40:59.882Z,87.70
2022-08-28T12:43:47.080Z,88.25
2022-08-28T12:46:37.924Z,88.34
2022-08-28T12:49:47.860Z,86.92
2022-08-28T12:52:41.888Z,86.42
2022-08-28T12:55:29.871Z,86.29
2022-08-28T12:58:09.915Z,86.84
2022-08-28T13:01:10.074Z,86.18
2022-08-28T13:04:07.911Z,87.28
2022-08-28T13:07:07.897Z,87.60
2022-08-28T13:09:41.953Z,88.28
2022-08-28T13:12:56.235Z,87.31
2022-08-28T13:15:55.913Z,86.31
2022-08-28T13:18:59.905Z,85.67
2022-08-28T13:22:35.887Z,85.77
2022-08-28T13:25:10.050Z,85.39
2022-08-28T13:28:09.911Z,84.90
2022-08-28T13:30:49.977Z,85.12
2022-08-28T13:33:43.906Z,84.75
2022-08-28T13:36:39.930Z,84.57
2022-08-28T13:39:34.913Z,84.83
2022-08-28T13:42:24.930Z,84.05
2022-08-28T13:45:00.016Z,84.54
2022-08-28T13:47:46.991Z,84.15
2022-08-28T13:50:26.944Z,86.01
2022-08-28T13:53:20.913Z,85.80
2022-08-28T13:56:08.946Z,86.32
2022-08-28T13:58:41.997Z,86.52
2022-08-28T14:01:51.067Z,86.00
2022-08-28T14:04:24.009Z,87.85
2022-08-28T14:07:10.937Z,87.44
2022-08-28T14:09:45.172Z,86.96
2022-08-28T14:12:33.612Z,87.62
2022-08-28T14:15:14.956Z,87.82
2022-08-28T14:18:01.945Z,87.11
2022-08-28T14:20:35.010Z,86.61
2022-08-28T14:23:21.941Z,86.60
2022-08-28T14:26:01.943Z,87.02
2022-08-28T14:28:48.970Z,87.49
2022-08-28T14:31:28.991Z,87.91
2022-08-28T14:34:28.961Z,87.95
2022-08-28T14:37:15.940Z,87.95
2022-08-28T14:39:50.536Z,87.95
2022-08-28T14:42:36.952Z,88.89
2022-08-28T14:45:10.053Z,88.90
2022-08-28T14:47:56.989Z,89.01
2022-08-28T14:50:36.967Z,89.00
2022-08-28T14:53:30.968Z,89.97
2022-08-28T14:56:18.967Z,89.67
2022-08-28T14:58:52.089Z,88.63
2022-08-28T15:01:43.992Z,88.51
2022-08-28T15:04:22.755Z,87.47
2022-08-28T15:07:13.983Z,87.65
2022-08-28T15:09:55.963Z,88.42
2022-08-28T15:12:49.966Z,86.99
2022-08-28T15:15:48.978Z,86.87
2022-08-28T15:18:43.947Z,86.59
2022-08-28T15:21:44.983Z,86.92
2022-08-28T15:24:34.974Z,86.78
2022-08-28T15:27:15.981Z,86.35
2022-08-28T15:30:10.019Z,86.32
2022-08-28T15:33:05.008Z,85.71
2022-08-28T15:35:51.981Z,85.54
2022-08-28T15:38:31.978Z,86.55
2022-08-28T15:41:31.979Z,88.26
2022-08-28T15:44:18.992Z,87.50
2022-08-28T15:47:01.306Z,87.81
2022-08-28T15:49:52.105Z,88.97
2022-08-28T15:52:25.201Z,90.22
2022-08-28T15:55:12.997Z,87.50
2022-08-28T15:57:46.763Z,88.11
2022-08-28T16:00:34.045Z,87.86
2022-08-28T16:03:14.088Z,87.93
2022-08-28T16:06:08.008Z,88.32
2022-08-28T16:08:56.005Z,87.81
2022-08-28T16:11:32.171Z,87.85
2022-08-28T16:14:21.237Z,87.66
2022-08-28T16:16:54.288Z,87.04
2022-08-28T16:19:41.033Z,86.46
2022-08-28T16:22:16.428Z,85.46
2022-08-28T16:25:04.038Z,85.59
2022-08-28T16:27:37.082Z,85.49
2022-08-28T16:30:24.509Z,85.59
2022-08-28T16:32:58.111Z,83.85
2022-08-28T16:35:54.911Z,83.17
2022-08-28T16:38:30.550Z,82.83
2022-08-28T16:41:23.021Z,83.28
2022-08-28T16:44:04.024Z,83.83
2022-08-28T16:46:58.117Z,84.15
2022-08-28T16:49:45.022Z,84.18
2022-08-28T16:52:26.042Z,83.76
2022-08-28T16:55:15.059Z,83.29
2022-08-28T16:57:55.067Z,84.09
2022-08-28T17:00:44.519Z,84.06
2022-08-28T17:03:26.170Z,84.80
2022-08-28T17:06:18.041Z,85.35
2022-08-28T17:08:56.469Z,85.46
2022-08-28T17:11:44.051Z,85.85
2022-08-28T17:14:18.152Z,85.79
2022-08-28T17:17:05.029Z,86.22
2022-08-28T17:19:39.120Z,86.75
2022-08-28T17:22:38.050Z,87.17
2022-08-28T17:25:17.733Z,86.89
2022-08-28T17:28:04.057Z,87.31
2022-08-28T17:30:44.060Z,87.98
2022-08-28T17:33:38.058Z,87.46
2022-08-28T17:36:34.307Z,87.99
2022-08-28T17:39:22.070Z,87.68
2022-08-28T17:42:02.118Z,88.19
2022-08-28T17:44:56.069Z,88.76
2022-08-28T17:47:43.100Z,89.49
2022-08-28T17:50:17.170Z,89.37
2022-08-28T17:53:04.076Z,90.04
2022-08-28T17:55:37.212Z,89.80
2022-08-28T17:58:24.093Z,89.89
2022-08-28T18:00:58.374Z,89.87
2022-08-28T18:03:53.418Z,90.68
2022-08-28T18:06:27.167Z,90.24
2022-08-28T18:09:15.129Z,91.17
2022-08-28T18:11:49.288Z,90.97
2022-08-28T18:14:36.085Z,91.72
2022-08-28T18:17:18.100Z,91.78
2022-08-28T18:20:06.084Z,92.25
2022-08-28T18:22:46.094Z,92.59
2022-08-28T18:25:50.859Z,92.20
2022-08-28T18:28:36.063Z,92.59
2022-08-28T18:31:30.162Z,92.92
2022-08-28T18:34:25.070Z,93.42
2022-08-28T18:37:12.092Z,93.52
2022-08-28T18:39:53.097Z,92.99
2022-08-28T18:42:41.105Z,93.25
2022-08-28T18:45:22.115Z,93.86
2022-08-28T18:48:16.089Z,93.66
2022-08-28T18:51:03.101Z,93.75
2022-08-28T18:53:36.183Z,94.26
2022-08-28T18:56:23.113Z,93.91
2022-08-28T18:58:58.220Z,94.21
2022-08-28T19:01:45.183Z,94.67
2022-08-28T19:04:18.408Z,94.28
2022-08-28T19:07:05.099Z,94.80
2022-08-28T19:09:38.277Z,95.10
2022-08-28T19:12:25.105Z,95.46
2022-08-28T19:15:02.210Z,95.50
2022-08-28T19:17:49.140Z,96.03
2022-08-28T19:20:27.407Z,96.12
2022-08-28T19:23:17.381Z,96.01
2022-08-28T19:25:58.118Z,96.05
2022-08-28T19:28:47.164Z,96.42
2022-08-28T19:31:20.486Z,96.45
2022-08-28T19:34:14.144Z,96.98
2022-08-28T19:37:01.144Z,97.29
2022-08-28T19:39:35.207Z,97.39
2022-08-28T19:42:22.142Z,97.56
2022-08-28T19:44:59.950Z,97.73
2022-08-28T19:47:47.155Z,97.88
2022-08-28T19:50:21.284Z,98.29
2022-08-28T19:53:08.144Z,98.25
2022-08-28T19:55:48.144Z,98.79
2022-08-28T19:58:42.126Z,98.96
2022-08-28T20:01:29.182Z,98.89
2022-08-28T20:04:03.227Z,99.27
2022-08-28T20:06:52.176Z,99.67
2022-08-28T20:09:25.257Z,99.81
2022-08-28T20:12:12.137Z,99.61
2022-08-28T20:14:45.645Z,100.00
2022-08-28T20:17:32.182Z,100.00
2022-08-28T20:20:08.345Z,100.00
2022-08-28T20:22:55.162Z,100.00
2022-08-28T20:25:29.288Z,100.00
2022-08-28T20:28:16.303Z,100.00
2022-08-28T20:30:53.382Z,100.00
2022-08-28T20:33:41.182Z,100.00
2022-08-28T20:36:22.168Z,100.00
2022-08-28T20:39:13.168Z,100.00
2022-08-28T20:41:47.278Z,100.00
2022-08-28T20:44:34.157Z,100.00
2022-08-28T20:47:07.252Z,100.00
2022-08-28T20:49:55.156Z,100.00
2022-08-28T20:52:36.195Z,100.00
2022-08-28T20:55:23.178Z,100.00
2022-08-28T20:57:56.270Z,100.00
2022-08-28T21:00:43.201Z,100.00
2022-08-28T21:03:16.275Z,100.00
2022-08-28T21:06:03.183Z,100.00
2022-08-28T21:08:36.270Z,100.00
2022-08-28T21:11:24.175Z,100.00
2022-08-28T21:13:58.296Z,100.00
2022-08-28T21:16:46.208Z,100.00
2022-08-28T21:19:21.683Z,100.00
2022-08-28T21:22:08.190Z,100.00
2022-08-28T21:24:42.300Z,100.00
2022-08-28T21:27:29.202Z,100.00
2022-08-28T21:30:06.320Z,100.00
2022-08-28T21:32:55.212Z,100.00
2022-08-28T21:35:49.209Z,100.00
2022-08-28T21:38:36.215Z,100.00
2022-08-28T21:41:14.096Z,100.00
2022-08-28T21:44:02.194Z,100.00
2022-08-28T21:46:42.217Z,100.00
2022-08-28T21:49:36.182Z,100.00
2022-08-28T21:52:27.209Z,100.00
2022-08-28T21:55:09.308Z,100.00
2022-08-28T21:57:56.240Z,100.00
2022-08-28T22:00:30.547Z,100.00
2022-08-28T22:03:17.255Z,100.00
2022-08-28T22:05:52.308Z,100.00
2022-08-28T22:08:39.215Z,100.00
2022-08-28T22:11:25.183Z,100.00
2022-08-28T22:14:12.233Z,100.00
2022-08-28T22:16:45.381Z,100.00
2022-08-28T22:19:32.226Z,100.00
2022-08-28T22:22:31.213Z,100.00
2022-08-28T22:25:18.241Z,100.00
2022-08-28T22:27:51.288Z,100.00
2022-08-28T22:30:38.240Z,100.00
2022-08-28T22:33:13.388Z,100.00
2022-08-28T22:36:00.217Z,100.00
2022-08-28T22:38:33.319Z,100.00
2022-08-28T22:41:20.257Z,100.00
2022-08-28T22:44:04.254Z,100.00
2022-08-28T22:46:58.233Z,100.00
2022-08-28T22:49:45.247Z,100.00
2022-08-28T22:52:18.353Z,100.00
2022-08-28T22:55:05.512Z,100.00
2022-08-28T22:57:40.478Z,100.00
2022-08-28T23:00:32.269Z,100.00
2022-08-28T23:03:06.765Z,100.00
2022-08-28T23:05:53.260Z,100.00
2022-08-28T23:08:29.648Z,100.00
2022-08-28T23:11:18.276Z,100.00
2022-08-28T23:13:51.362Z,100.00
2022-08-28T23:16:38.307Z,100.00
2022-08-28T23:19:13.712Z,100.00
2022-08-28T23:22:00.283Z,100.00
2022-08-28T23:24:33.340Z,100.00
2022-08-28T23:27:35.865Z,100.00
2022-08-28T23:30:18.268Z,100.00
2022-08-28T23:33:12.277Z,100.00
2022-08-28T23:36:06.272Z,100.00
2022-08-28T23:39:00.302Z,100.00
2022-08-28T23:41:55.286Z,100.00
2022-08-28T23:44:49.271Z,100.00
2022-08-28T23:47:43.256Z,100.00
2022-08-28T23:50:30.278Z,100.00
2022-08-28T23:53:10.272Z,100.00
2022-08-28T23:55:57.291Z,100.00
2022-08-28T23:58:33.368Z,100.00
